Time;durP1;ratioP1;P1;durP2;ratioP2;P2;SDS_P1;SDS_P2;PMS_P1;PMS_P2;Temp;Humidity;BMP_temperature;BMP_pressure;BME280_temperature;BME280_humidity;BME280_pressure;Samples;Min_cycle;Max_cycle;Signal;HPM_P1;HPM_P2
2023/01/20 00:02:16;;;;;;;0.30;0.30;;;;;;;;;;5072113;28;20324;-65
2023/01/20 00:04:42;;;;;;;0.30;0.30;;;;;;;;;;5083771;28;20233;-65
2023/01/20 00:07:09;;;;;;;0.20;0.20;;;;;;;;;;5072029;28;20248;-65
2023/01/20 00:09:35;;;;;;;0.20;0.20;;;;;;;;;;5083624;28;20276;-65
2023/01/20 00:12:01;;;;;;;0.20;0.20;;;;;;;;;;5072024;28;20253;-66
2023/01/20 00:14:28;;;;;;;0.20;0.20;;;;;;;;;;5083399;28;20258;-65
2023/01/20 00:16:56;;;;;;;0.20;0.20;;;;;;;;;;5072071;28;20433;-65
2023/01/20 00:19:22;;;;;;;0.20;0.20;;;;;;;;;;5083378;28;20208;-65
2023/01/20 00:21:49;;;;;;;0.20;0.20;;;;;;;;;;5072087;28;20241;-65
2023/01/20 00:24:15;;;;;;;4.37;4.00;;;;;;;;;;5083416;28;20206;-65
2023/01/20 00:26:42;;;;;;;0.20;0.20;;;;;;;;;;5071949;28;20279;-65
2023/01/20 00:29:09;;;;;;;0.20;0.20;;;;;;;;;;5083932;28;20237;-64
2023/01/20 00:31:36;;;;;;;0.20;0.20;;;;;;;;;;5075825;28;20244;-64
2023/01/20 00:34:04;;;;;;;0.20;0.20;;;;;;;;;;5087022;28;20211;-66
2023/01/20 00:36:31;;;;;;;0.30;0.30;;;;;;;;;;5075846;28;20577;-64
2023/01/20 00:38:57;;;;;;;0.20;0.20;;;;;;;;;;5086468;28;20235;-65
2023/01/20 00:41:24;;;;;;;0.20;0.20;;;;;;;;;;5075795;28;20268;-65
2023/01/20 00:43:50;;;;;;;0.20;0.20;;;;;;;;;;5086528;28;20268;-66
2023/01/20 00:46:17;;;;;;;0.23;0.23;;;;;;;;;;5075657;28;20256;-66
2023/01/20 00:48:43;;;;;;;0.20;0.20;;;;;;;;;;5086597;28;20486;-65
2023/01/20 00:51:11;;;;;;;0.20;0.20;;;;;;;;;;5075685;28;20252;-66
2023/01/20 00:53:37;;;;;;;0.20;0.20;;;;;;;;;;5086117;28;20495;-64
2023/01/20 00:56:04;;;;;;;0.20;0.20;;;;;;;;;;5075713;28;20253;-66
2023/01/20 00:58:30;;;;;;;0.20;0.20;;;;;;;;;;5085946;28;20271;-65
2023/01/20 01:00:57;;;;;;;0.20;0.20;;;;;;;;;;5075899;28;20588;-64
2023/01/20 01:03:24;;;;;;;0.20;0.20;;;;;;;;;;5085643;28;20214;-65
2023/01/20 01:05:50;;;;;;;0.20;0.20;;;;;;;;;;5075642;28;20317;-65
2023/01/20 01:08:18;;;;;;;0.20;0.20;;;;;;;;;;5085879;28;20206;-65
2023/01/20 01:10:44;;;;;;;0.30;0.30;;;;;;;;;;5075609;28;20304;-66
2023/01/20 01:13:11;;;;;;;0.30;0.30;;;;;;;;;;5085515;28;20547;-65
2023/01/20 01:15:37;;;;;;;0.20;0.20;;;;;;;;;;5075805;28;20312;-65
2023/01/20 01:18:04;;;;;;;0.20;0.20;;;;;;;;;;5085669;28;20252;-65
2023/01/20 01:20:30;;;;;;;0.20;0.20;;;;;;;;;;5075575;28;20249;-65
2023/01/20 01:22:56;;;;;;;0.20;0.20;;;;;;;;;;5085488;28;20264;-66
2023/01/20 01:25:24;;;;;;;0.20;0.20;;;;;;;;;;5075844;28;20208;-65
2023/01/20 01:27:50;;;;;;;0.20;0.20;;;;;;;;;;5084891;28;20277;-65
2023/01/20 01:30:17;;;;;;;0.20;0.20;;;;;;;;;;5075334;28;20224;-65
2023/01/20 01:32:43;;;;;;;0.20;0.20;;;;;;;;;;5084882;28;20256;-66
2023/01/20 01:35:10;;;;;;;0.20;0.20;;;;;;;;;;5086019;28;20450;-65
2023/01/20 01:37:36;;;;;;;0.20;0.20;;;;;;;;;;5074257;28;20285;-65
2023/01/20 01:40:02;;;;;;;0.30;0.30;;;;;;;;;;5086254;28;20245;-65
2023/01/20 01:42:30;;;;;;;0.30;0.30;;;;;;;;;;5073368;28;20315;-66
2023/01/20 01:45:14;;;;;;;0.20;0.20;;;;;;;;;;5086210;28;20376;-65
2023/01/20 01:47:42;;;;;;;0.20;0.20;;;;;;;;;;5074247;28;20240;-66
2023/01/20 01:50:10;;;;;;;0.20;0.20;;;;;;;;;;5085776;28;20237;-66
2023/01/20 01:52:37;;;;;;;0.20;0.20;;;;;;;;;;5074069;28;20587;-66
2023/01/20 01:55:04;;;;;;;0.23;0.23;;;;;;;;;;5085903;28;20242;-66
2023/01/20 01:57:33;;;;;;;0.20;0.20;;;;;;;;;;5073986;28;20257;-65
2023/01/20 02:00:00;;;;;;;0.27;0.27;;;;;;;;;;5085870;28;20460;-66
2023/01/20 02:02:26;;;;;;;0.20;0.20;;;;;;;;;;5074205;28;20294;-66
2023/01/20 02:04:53;;;;;;;0.20;0.20;;;;;;;;;;5085768;28;20348;-66
2023/01/20 02:07:20;;;;;;;0.27;0.27;;;;;;;;;;5073828;28;20371;-65
2023/01/20 02:09:47;;;;;;;0.20;0.20;;;;;;;;;;5085627;28;20285;-65
2023/01/20 02:12:16;;;;;;;0.20;0.20;;;;;;;;;;5073608;28;20252;-66
2023/01/20 02:14:45;;;;;;;0.20;0.20;;;;;;;;;;5085576;28;20205;-65
2023/01/20 02:17:15;;;;;;;0.20;0.20;;;;;;;;;;5073461;28;20241;-66
2023/01/20 02:19:57;;;;;;;0.30;0.30;;;;;;;;;;5085365;28;20195;-65
2023/01/20 02:22:28;;;;;;;0.50;0.50;;;;;;;;;;5073377;28;20251;-65
2023/01/20 02:25:09;;;;;;;0.30;0.30;;;;;;;;;;5085305;28;20233;-65
2023/01/20 02:27:46;;;;;;;0.30;0.30;;;;;;;;;;5053351;28;20558;-65
2023/01/20 02:30:27;;;;;;;0.27;0.27;;;;;;;;;;5054914;28;20480;-65
2023/01/20 02:32:56;;;;;;;0.30;0.30;;;;;;;;;;5075452;28;20213;-66
2023/01/20 02:35:26;;;;;;;0.20;0.20;;;;;;;;;;5054302;28;20276;-66
2023/01/20 02:37:57;;;;;;;1.27;1.27;;;;;;;;;;5063980;28;20257;-66
2023/01/20 02:40:27;;;;;;;0.20;0.20;;;;;;;;;;5054724;28;20445;-66
2023/01/20 02:42:57;;;;;;;0.20;0.20;;;;;;;;;;5063603;28;20231;-65
2023/01/20 02:45:25;;;;;;;0.20;0.20;;;;;;;;;;5054254;28;20201;-65
2023/01/20 02:47:54;;;;;;;0.20;0.20;;;;;;;;;;5063733;28;20201;-65
2023/01/20 02:50:23;;;;;;;0.20;0.20;;;;;;;;;;5054396;28;20214;-65
2023/01/20 02:52:51;;;;;;;0.20;0.20;;;;;;;;;;5063512;28;20205;-64
2023/01/20 02:55:20;;;;;;;0.30;0.30;;;;;;;;;;5054259;28;20477;-66
2023/01/20 02:57:48;;;;;;;0.20;0.20;;;;;;;;;;5063235;28;20270;-65
2023/01/20 03:00:17;;;;;;;0.20;0.20;;;;;;;;;;5053995;28;20243;-65
2023/01/20 03:02:45;;;;;;;0.60;0.60;;;;;;;;;;5063345;28;20436;-66
2023/01/20 03:05:14;;;;;;;0.20;0.20;;;;;;;;;;5056462;28;20237;-65
2023/01/20 03:07:43;;;;;;;0.20;0.20;;;;;;;;;;5063251;28;20245;-65
2023/01/20 03:10:11;;;;;;;0.20;0.20;;;;;;;;;;5062155;28;20278;-67
2023/01/20 03:12:40;;;;;;;0.20;0.20;;;;;;;;;;5063166;28;20228;-66
2023/01/20 03:15:08;;;;;;;0.20;0.20;;;;;;;;;;5063864;28;20204;-66
2023/01/20 03:17:35;;;;;;;0.20;0.20;;;;;;;;;;5052431;28;20224;-65
2023/01/20 03:20:01;;;;;;;0.20;0.20;;;;;;;;;;5064358;28;20441;-65
2023/01/20 03:22:28;;;;;;;0.20;0.20;;;;;;;;;;5052691;28;20573;-65
2023/01/20 03:24:56;;;;;;;0.20;0.20;;;;;;;;;;5064276;28;20384;-65
2023/01/20 03:27:23;;;;;;;0.20;0.20;;;;;;;;;;5052515;28;20264;-65
2023/01/20 03:29:49;;;;;;;0.27;0.27;;;;;;;;;;5064145;28;20269;-65
2023/01/20 03:32:15;;;;;;;0.20;0.20;;;;;;;;;;5052609;28;20265;-65
2023/01/20 03:34:42;;;;;;;0.30;0.30;;;;;;;;;;5064179;28;20500;-65
2023/01/20 03:37:10;;;;;;;0.20;0.20;;;;;;;;;;5052371;28;20505;-64
2023/01/20 03:39:38;;;;;;;0.27;0.27;;;;;;;;;;5063922;28;20278;-66
2023/01/20 03:42:07;;;;;;;0.30;0.30;;;;;;;;;;5052420;28;20242;-65
2023/01/20 03:44:54;;;;;;;0.20;0.20;;;;;;;;;;5063909;28;20235;-65
2023/01/20 03:47:27;;;;;;;0.20;0.20;;;;;;;;;;5052378;28;20252;-66
2023/01/20 03:49:56;;;;;;;0.20;0.20;;;;;;;;;;5063880;28;20209;-65
2023/01/20 03:52:25;;;;;;;0.20;0.20;;;;;;;;;;5052284;28;20265;-65
2023/01/20 03:54:52;;;;;;;0.20;0.20;;;;;;;;;;5063847;28;20237;-65
2023/01/20 03:57:22;;;;;;;0.20;0.20;;;;;;;;;;5052108;28;20313;-65
2023/01/20 03:59:50;;;;;;;0.20;0.20;;;;;;;;;;5063250;28;20249;-65
2023/01/20 04:02:16;;;;;;;0.20;0.20;;;;;;;;;;5052246;28;20241;-65
2023/01/20 04:04:44;;;;;;;0.20;0.20;;;;;;;;;;5065457;28;20282;-65
2023/01/20 04:07:12;;;;;;;0.20;0.20;;;;;;;;;;5056334;28;20303;-65
2023/01/20 04:09:40;;;;;;;0.20;0.20;;;;;;;;;;5067254;28;20213;-65
2023/01/20 04:12:07;;;;;;;0.27;0.27;;;;;;;;;;5056222;28;20236;-66
2023/01/20 04:14:35;;;;;;;0.20;0.20;;;;;;;;;;5067646;28;20492;-66
2023/01/20 04:17:03;;;;;;;0.20;0.20;;;;;;;;;;5056150;28;20234;-65
2023/01/20 04:19:30;;;;;;;0.20;0.20;;;;;;;;;;5067570;28;20385;-66
2023/01/20 04:22:00;;;;;;;0.30;0.30;;;;;;;;;;5056172;28;20313;-65
2023/01/20 04:24:30;;;;;;;2.80;2.63;;;;;;;;;;5067012;28;20281;-64
2023/01/20 04:26:56;;;;;;;0.20;0.20;;;;;;;;;;5056029;28;20236;-65
2023/01/20 04:29:22;;;;;;;0.23;0.23;;;;;;;;;;5067239;28;20205;-65
2023/01/20 04:31:50;;;;;;;0.20;0.20;;;;;;;;;;5056042;28;20243;-64
2023/01/20 04:34:16;;;;;;;0.20;0.20;;;;;;;;;;5067072;28;20215;-64
2023/01/20 04:36:43;;;;;;;0.20;0.20;;;;;;;;;;5055933;28;20237;-65
2023/01/20 04:39:09;;;;;;;0.27;0.27;;;;;;;;;;5066829;28;20273;-65
2023/01/20 04:41:36;;;;;;;0.20;0.20;;;;;;;;;;5056053;28;20302;-65
2023/01/20 04:44:02;;;;;;;0.20;0.20;;;;;;;;;;5066721;28;20204;-65
2023/01/20 04:46:28;;;;;;;0.20;0.20;;;;;;;;;;5055800;28;20270;-65
2023/01/20 04:48:56;;;;;;;0.20;0.20;;;;;;;;;;5066571;28;20280;-65
2023/01/20 04:51:22;;;;;;;0.20;0.20;;;;;;;;;;5056032;28;20515;-65
2023/01/20 04:53:49;;;;;;;0.20;0.20;;;;;;;;;;5066464;28;20272;-65
2023/01/20 04:56:15;;;;;;;0.20;0.20;;;;;;;;;;5055764;28;20257;-65
2023/01/20 04:58:42;;;;;;;0.20;0.20;;;;;;;;;;5066208;28;20229;-66
2023/01/20 05:01:09;;;;;;;0.20;0.20;;;;;;;;;;5055798;28;20252;-66
2023/01/20 05:03:35;;;;;;;0.20;0.20;;;;;;;;;;5065942;28;20238;-65
2023/01/20 05:06:05;;;;;;;0.20;0.20;;;;;;;;;;5055960;28;20263;-65
2023/01/20 05:08:31;;;;;;;0.20;0.20;;;;;;;;;;5065747;28;20245;-66
2023/01/20 05:10:57;;;;;;;0.20;0.20;;;;;;;;;;5055984;28;20440;-66
2023/01/20 05:13:24;;;;;;;0.30;0.30;;;;;;;;;;5065773;28;20205;-66
2023/01/20 05:15:50;;;;;;;0.20;0.20;;;;;;;;;;5054623;28;20514;-65
2023/01/20 05:18:17;;;;;;;0.20;0.20;;;;;;;;;;5065364;28;20233;-65
2023/01/20 05:20:44;;;;;;;0.27;0.27;;;;;;;;;;5055893;28;20519;-66
2023/01/20 05:23:12;;;;;;;0.30;0.30;;;;;;;;;;5065377;28;20438;-65
2023/01/20 05:25:38;;;;;;;0.20;0.20;;;;;;;;;;5055573;28;20265;-65
2023/01/20 05:28:05;;;;;;;0.20;0.20;;;;;;;;;;5065185;28;20556;-66
2023/01/20 05:30:31;;;;;;;0.53;0.53;;;;;;;;;;5055602;28;20245;-65
2023/01/20 05:32:57;;;;;;;0.20;0.20;;;;;;;;;;5064950;28;20199;-66
2023/01/20 05:35:24;;;;;;;0.20;0.20;;;;;;;;;;5055474;28;20236;-66
2023/01/20 05:37:52;;;;;;;0.20;0.20;;;;;;;;;;5064950;28;20260;-66
2023/01/20 05:40:20;;;;;;;1.07;1.07;;;;;;;;;;5055653;28;20277;-66
2023/01/20 05:42:46;;;;;;;0.30;0.30;;;;;;;;;;5064623;28;20193;-66
2023/01/20 05:45:13;;;;;;;0.30;0.30;;;;;;;;;;5055684;28;20560;-67
2023/01/20 05:47:39;;;;;;;1.70;1.60;;;;;;;;;;5064619;28;20230;-66
2023/01/20 05:50:06;;;;;;;0.20;0.20;;;;;;;;;;5065992;28;20253;-65
2023/01/20 05:52:32;;;;;;;0.23;0.23;;;;;;;;;;5054525;28;20435;-65
2023/01/20 05:54:58;;;;;;;0.20;0.20;;;;;;;;;;5065851;28;20204;-66
2023/01/20 05:57:26;;;;;;;0.20;0.20;;;;;;;;;;5054108;28;20328;-65
2023/01/20 05:59:54;;;;;;;0.23;0.23;;;;;;;;;;5065782;28;20216;-65
2023/01/20 06:02:20;;;;;;;0.20;0.20;;;;;;;;;;5054027;28;20275;-65
2023/01/20 06:04:47;;;;;;;0.30;0.30;;;;;;;;;;5065631;28;20203;-65
2023/01/20 06:07:13;;;;;;;0.20;0.20;;;;;;;;;;5054096;28;20593;-66
2023/01/20 06:09:40;;;;;;;0.20;0.20;;;;;;;;;;5065499;28;20271;-65
2023/01/20 06:12:06;;;;;;;0.20;0.20;;;;;;;;;;5053961;28;20305;-65
2023/01/20 06:14:34;;;;;;;0.20;0.20;;;;;;;;;;5065296;28;20236;-65
2023/01/20 06:17:00;;;;;;;0.20;0.20;;;;;;;;;;5053895;28;20249;-65
2023/01/20 06:19:26;;;;;;;0.20;0.20;;;;;;;;;;5065328;28;20369;-64
2023/01/20 06:21:53;;;;;;;0.20;0.20;;;;;;;;;;5053933;28;20242;-65
2023/01/20 06:24:19;;;;;;;0.30;0.30;;;;;;;;;;5065043;28;20221;-65
2023/01/20 06:26:46;;;;;;;0.27;0.27;;;;;;;;;;5053374;28;20309;-65
2023/01/20 06:29:12;;;;;;;0.30;0.30;;;;;;;;;;5064517;28;20275;-65
2023/01/20 06:31:40;;;;;;;0.30;0.30;;;;;;;;;;5053701;28;20269;-65
2023/01/20 06:34:06;;;;;;;0.30;0.30;;;;;;;;;;5064791;28;20239;-66
2023/01/20 06:36:32;;;;;;;0.20;0.20;;;;;;;;;;5053847;28;20261;-65
2023/01/20 06:38:59;;;;;;;0.20;0.20;;;;;;;;;;5064665;28;20237;-65
2023/01/20 06:41:25;;;;;;;0.20;0.20;;;;;;;;;;5053758;28;20260;-65
2023/01/20 06:43:52;;;;;;;0.20;0.20;;;;;;;;;;5064284;28;20237;-65
2023/01/20 06:46:18;;;;;;;0.20;0.20;;;;;;;;;;5053840;28;20256;-65
2023/01/20 06:48:46;;;;;;;0.20;0.20;;;;;;;;;;5064284;28;20498;-66
2023/01/20 06:51:13;;;;;;;0.20;0.20;;;;;;;;;;5053670;28;20263;-65
2023/01/20 06:53:40;;;;;;;0.30;0.30;;;;;;;;;;5063721;28;20270;-65
2023/01/20 06:56:06;;;;;;;0.20;0.20;;;;;;;;;;5053847;28;20617;-65
2023/01/20 06:58:33;;;;;;;0.20;0.20;;;;;;;;;;5063722;28;20293;-65
2023/01/20 07:01:04;;;;;;;0.67;0.67;;;;;;;;;;5053734;28;20246;-65
2023/01/20 07:03:30;;;;;;;0.20;0.20;;;;;;;;;;5063697;28;20277;-66
2023/01/20 07:05:58;;;;;;;0.20;0.20;;;;;;;;;;5053668;28;20313;-66
2023/01/20 07:08:25;;;;;;;0.20;0.20;;;;;;;;;;5063505;28;20228;-65
2023/01/20 07:10:51;;;;;;;0.30;0.30;;;;;;;;;;5053441;28;20262;-65
2023/01/20 07:13:18;;;;;;;0.20;0.20;;;;;;;;;;5063491;28;20396;-67
2023/01/20 07:15:44;;;;;;;0.20;0.20;;;;;;;;;;5053729;28;20264;-66
2023/01/20 07:18:10;;;;;;;0.20;0.20;;;;;;;;;;5063192;28;20395;-66
2023/01/20 07:20:37;;;;;;;0.20;0.20;;;;;;;;;;5053506;28;20239;-66
2023/01/20 07:23:05;;;;;;;0.20;0.20;;;;;;;;;;5063316;28;20264;-65
2023/01/20 07:25:32;;;;;;;0.20;0.20;;;;;;;;;;5053572;28;20247;-65
2023/01/20 07:27:58;;;;;;;0.20;0.20;;;;;;;;;;5062775;28;20248;-66
2023/01/20 07:30:25;;;;;;;0.20;0.20;;;;;;;;;;5053341;28;20268;-65
2023/01/20 07:32:51;;;;;;;0.23;0.23;;;;;;;;;;5062670;28;20259;-65
2023/01/20 07:35:17;;;;;;;0.20;0.20;;;;;;;;;;5053722;28;20276;-65
2023/01/20 07:37:44;;;;;;;0.20;0.20;;;;;;;;;;5062463;28;20282;-66
2023/01/20 07:40:12;;;;;;;0.20;0.20;;;;;;;;;;5052991;28;20501;-66
2023/01/20 07:42:39;;;;;;;0.20;0.20;;;;;;;;;;5062386;28;20226;-68
2023/01/20 07:45:05;;;;;;;0.20;0.20;;;;;;;;;;5063914;28;20210;-67
2023/01/20 07:47:32;;;;;;;0.20;0.20;;;;;;;;;;5052083;28;20212;-65
2023/01/20 07:49:58;;;;;;;0.20;0.20;;;;;;;;;;5063885;28;20211;-63
2023/01/20 07:52:24;;;;;;;0.20;0.20;;;;;;;;;;5052401;28;20267;-62
2023/01/20 07:54:51;;;;;;;0.20;0.20;;;;;;;;;;5063957;28;20205;-63
2023/01/20 07:57:19;;;;;;;0.20;0.20;;;;;;;;;;5052151;28;20263;-66
2023/01/20 07:59:45;;;;;;;0.20;0.20;;;;;;;;;;5063808;28;20248;-63
2023/01/20 08:02:11;;;;;;;0.20;0.20;;;;;;;;;;5052300;28;20575;-63
2023/01/20 08:04:38;;;;;;;0.20;0.20;;;;;;;;;;5063797;28;20261;-62
2023/01/20 08:07:04;;;;;;;0.20;0.20;;;;;;;;;;5052287;28;20241;-63
2023/01/20 08:09:30;;;;;;;0.20;0.20;;;;;;;;;;5063690;28;20236;-66
2023/01/20 08:11:57;;;;;;;0.20;0.20;;;;;;;;;;5052269;28;20248;-64
2023/01/20 08:14:24;;;;;;;0.20;0.20;;;;;;;;;;5063484;28;20240;-65
2023/01/20 08:16:51;;;;;;;0.20;0.20;;;;;;;;;;5055464;28;20265;-64
2023/01/20 08:19:18;;;;;;;0.20;0.20;;;;;;;;;;5063328;28;20275;-63
2023/01/20 08:21:44;;;;;;;0.20;0.20;;;;;;;;;;5052262;28;20243;-63
2023/01/20 08:24:11;;;;;;;0.20;0.20;;;;;;;;;;5063122;28;20222;-63
2023/01/20 08:26:37;;;;;;;0.20;0.20;;;;;;;;;;5052033;28;20314;-64
2023/01/20 08:29:04;;;;;;;0.20;0.20;;;;;;;;;;5063152;28;20282;-65
2023/01/20 08:31:32;;;;;;;0.20;0.20;;;;;;;;;;5052177;28;20238;-64
2023/01/20 08:33:59;;;;;;;0.20;0.20;;;;;;;;;;5062911;28;20210;-64
2023/01/20 08:36:26;;;;;;;0.20;0.20;;;;;;;;;;5052257;28;20306;-65
2023/01/20 08:38:54;;;;;;;0.20;0.20;;;;;;;;;;5062970;28;20472;-63
2023/01/20 08:41:21;;;;;;;0.30;0.30;;;;;;;;;;5052328;28;20507;-64
2023/01/20 08:43:47;;;;;;;0.20;0.20;;;;;;;;;;5062761;28;20276;-63
2023/01/20 08:46:15;;;;;;;0.20;0.20;;;;;;;;;;5052368;28;20241;-65
2023/01/20 08:48:43;;;;;;;0.20;0.20;;;;;;;;;;5062799;28;20493;-66
2023/01/20 08:51:12;;;;;;;0.20;0.20;;;;;;;;;;5054730;28;20567;-67
2023/01/20 08:53:39;;;;;;;0.20;0.20;;;;;;;;;;5066452;28;20240;-66
2023/01/20 08:56:06;;;;;;;0.20;0.20;;;;;;;;;;5056251;28;20299;-69
2023/01/20 08:58:33;;;;;;;0.20;0.20;;;;;;;;;;5065975;28;20229;-69
2023/01/20 09:00:59;;;;;;;0.27;0.27;;;;;;;;;;5056220;28;20242;-68
2023/01/20 09:03:26;;;;;;;15.83;5.43;;;;;;;;;;5065895;28;20210;-68
2023/01/20 09:05:55;;;;;;;0.20;0.20;;;;;;;;;;5056132;28;20263;-66
2023/01/20 09:08:25;;;;;;;0.20;0.20;;;;;;;;;;5065959;28;20207;-67
2023/01/20 09:10:53;;;;;;;0.30;0.30;;;;;;;;;;5056151;28;20252;-67
2023/01/20 09:13:19;;;;;;;0.20;0.20;;;;;;;;;;5065647;28;20211;-67
2023/01/20 09:15:50;;;;;;;0.40;0.40;;;;;;;;;;5056020;28;20445;-67
2023/01/20 09:18:17;;;;;;;0.20;0.20;;;;;;;;;;5065532;28;20302;-68
2023/01/20 09:20:43;;;;;;;0.20;0.20;;;;;;;;;;5055711;28;20250;-67
2023/01/20 09:23:11;;;;;;;0.20;0.20;;;;;;;;;;5065592;28;20427;-68
2023/01/20 09:25:37;;;;;;;0.20;0.20;;;;;;;;;;5055966;28;20295;-67
2023/01/20 09:28:03;;;;;;;0.13;0.13;;;;;;;;;;5065180;28;20462;-66
2023/01/20 09:30:30;;;;;;;0.20;0.20;;;;;;;;;;5055818;28;20263;-67
2023/01/20 09:32:58;;;;;;;0.20;0.20;;;;;;;;;;5065292;28;20247;-66
2023/01/20 09:35:24;;;;;;;1.20;1.13;;;;;;;;;;5055877;28;20204;-67
2023/01/20 09:46:17;;;;;;;0.10;0.10;;;;;;;;;;5055100;28;20452;-67
2023/01/20 09:54:22;;;;;;;0.63;0.63;;;;;;;;;;5065727;28;20238;-67
2023/01/20 09:56:51;;;;;;;0.20;0.20;;;;;;;;;;5054526;28;20265;-67
2023/01/20 09:59:20;;;;;;;0.20;0.20;;;;;;;;;;5065629;28;20260;-68
2023/01/20 10:01:47;;;;;;;0.20;0.20;;;;;;;;;;5053664;28;20243;-67
2023/01/20 10:04:16;;;;;;;0.20;0.20;;;;;;;;;;5065415;28;20203;-67
2023/01/20 10:06:44;;;;;;;0.20;0.20;;;;;;;;;;5054366;28;20249;-67
2023/01/20 10:09:16;;;;;;;0.20;0.20;;;;;;;;;;5065242;28;20283;-66
2023/01/20 10:11:44;;;;;;;0.20;0.20;;;;;;;;;;5054410;28;20302;-67
2023/01/20 10:14:15;;;;;;;0.97;0.93;;;;;;;;;;5064849;28;20279;-67
2023/01/20 10:16:44;;;;;;;0.20;0.20;;;;;;;;;;5054315;28;20306;-65
2023/01/20 10:19:14;;;;;;;0.20;0.20;;;;;;;;;;5065113;28;20530;-65
2023/01/20 10:21:44;;;;;;;0.10;0.10;;;;;;;;;;5054101;28;20243;-65
2023/01/20 10:24:13;;;;;;;0.10;0.10;;;;;;;;;;5064987;28;20235;-64
2023/01/20 10:26:43;;;;;;;0.10;0.10;;;;;;;;;;5053688;28;20243;-65
2023/01/20 10:29:11;;;;;;;0.73;0.73;;;;;;;;;;5064888;28;20280;-65
2023/01/20 10:31:42;;;;;;;0.20;0.20;;;;;;;;;;5053930;28;20240;-65
2023/01/20 10:34:11;;;;;;;0.20;0.20;;;;;;;;;;5064890;28;20279;-66
2023/01/20 10:36:40;;;;;;;0.20;0.20;;;;;;;;;;5054155;28;20259;-65
2023/01/20 10:39:11;;;;;;;0.63;0.63;;;;;;;;;;5064685;28;20558;-66
2023/01/20 10:41:40;;;;;;;0.20;0.20;;;;;;;;;;5053760;28;20258;-64
2023/01/20 10:44:10;;;;;;;5.40;5.20;;;;;;;;;;5064543;28;20267;-65
2023/01/20 10:46:46;;;;;;;0.20;0.20;;;;;;;;;;5053762;28;20272;-66
2023/01/20 10:49:24;;;;;;;0.10;0.10;;;;;;;;;;5064659;28;20236;-65
2023/01/20 10:51:53;;;;;;;0.10;0.10;;;;;;;;;;5053522;28;20239;-65
2023/01/20 10:54:27;;;;;;;0.10;0.10;;;;;;;;;;5064604;28;20204;-65
2023/01/20 10:56:54;;;;;;;0.10;0.10;;;;;;;;;;5053267;28;20240;-66
2023/01/20 10:59:27;;;;;;;0.10;0.10;;;;;;;;;;5064251;28;20228;-65
2023/01/20 11:01:55;;;;;;;0.10;0.10;;;;;;;;;;5053134;28;20305;-65
2023/01/20 11:04:21;;;;;;;0.10;0.10;;;;;;;;;;5064396;28;20231;-66
2023/01/20 11:06:50;;;;;;;2.43;2.27;;;;;;;;;;5053241;28;20313;-64
2023/01/20 11:09:20;;;;;;;0.40;0.40;;;;;;;;;;5064321;28;20438;-64
2023/01/20 11:11:47;;;;;;;0.10;0.10;;;;;;;;;;5052904;28;20271;-64
2023/01/20 11:14:13;;;;;;;0.17;0.17;;;;;;;;;;5063900;28;20276;-65
2023/01/20 11:16:43;;;;;;;0.20;0.20;;;;;;;;;;5052994;28;20246;-66
2023/01/20 11:19:11;;;;;;;0.10;0.10;;;;;;;;;;5063812;28;20247;-67
2023/01/20 11:21:39;;;;;;;0.10;0.10;;;;;;;;;;5053042;28;20258;-67
2023/01/20 11:24:24;;;;;;;0.10;0.10;;;;;;;;;;5063797;28;20204;-67
2023/01/20 11:26:50;;;;;;;0.10;0.10;;;;;;;;;;5052818;28;20307;-68
2023/01/20 11:29:27;;;;;;;0.10;0.10;;;;;;;;;;5063884;28;20230;-67
2023/01/20 11:31:55;;;;;;;0.10;0.10;;;;;;;;;;5052759;28;20567;-68
2023/01/20 11:34:24;;;;;;;0.10;0.10;;;;;;;;;;5063904;28;20276;-67
2023/01/20 11:36:51;;;;;;;0.10;0.10;;;;;;;;;;5052573;28;20246;-67
2023/01/20 11:39:25;;;;;;;0.10;0.10;;;;;;;;;;5063676;28;20231;-68
2023/01/20 11:42:09;;;;;;;8.40;3.50;;;;;;;;;;5052641;28;20239;-67
2023/01/20 11:44:41;;;;;;;0.17;0.17;;;;;;;;;;5063980;28;20213;-67
2023/01/20 11:47:16;;;;;;;0.17;0.17;;;;;;;;;;5052491;28;20252;-67
2023/01/20 11:49:44;;;;;;;0.10;0.10;;;;;;;;;;5063964;28;20206;-66
2023/01/20 11:52:19;;;;;;;0.10;0.10;;;;;;;;;;5052360;28;20246;-67
2023/01/20 11:54:45;;;;;;;0.10;0.10;;;;;;;;;;5063339;28;20273;-68
2023/01/20 11:57:15;;;;;;;0.20;0.20;;;;;;;;;;5052385;28;20265;-67
2023/01/20 11:59:48;;;;;;;0.10;0.10;;;;;;;;;;5063770;28;20251;-67
2023/01/20 12:02:22;;;;;;;0.10;0.10;;;;;;;;;;5052174;28;20281;-67
2023/01/20 12:04:56;;;;;;;0.10;0.10;;;;;;;;;;5063822;28;20209;-67
2023/01/20 12:07:24;;;;;;;0.20;0.20;;;;;;;;;;5052272;28;20244;-67
2023/01/20 12:09:52;;;;;;;0.10;0.10;;;;;;;;;;5063702;28;20238;-67
2023/01/20 12:12:22;;;;;;;0.10;0.10;;;;;;;;;;5052197;28;20553;-66
2023/01/20 12:14:50;;;;;;;1.40;1.40;;;;;;;;;;5063771;28;20278;-67
2023/01/20 12:17:18;;;;;;;0.10;0.10;;;;;;;;;;5052147;28;20261;-67
2023/01/20 12:19:53;;;;;;;0.10;0.10;;;;;;;;;;5063584;28;20460;-66
2023/01/20 12:22:24;;;;;;;0.10;0.10;;;;;;;;;;5051945;28;20246;-67
2023/01/20 12:25:09;;;;;;;0.10;0.10;;;;;;;;;;5063799;28;20443;-67
2023/01/20 12:27:37;;;;;;;0.10;0.10;;;;;;;;;;5055725;28;20287;-67
2023/01/20 12:30:11;;;;;;;0.10;0.10;;;;;;;;;;5067522;28;20210;-68
2023/01/20 12:32:39;;;;;;;0.30;0.30;;;;;;;;;;5055743;28;20261;-68
2023/01/20 12:35:05;;;;;;;0.20;0.20;;;;;;;;;;5067499;28;20205;-68
2023/01/20 12:37:38;;;;;;;0.10;0.10;;;;;;;;;;5055616;28;20366;-66
2023/01/20 12:40:18;;;;;;;0.10;0.10;;;;;;;;;;5067251;28;20246;-66
2023/01/20 12:43:11;;;;;;;0.67;0.67;;;;;;;;;;5066786;28;20220;-67
2023/01/20 12:45:49;;;;;;;4.73;2.37;;;;;;;;;;5064817;28;20266;-67
2023/01/20 12:48:21;;;;;;;0.10;0.10;;;;;;;;;;5087991;28;20246;-67
2023/01/20 12:50:57;;;;;;;0.10;0.10;;;;;;;;;;5067362;28;20250;-67
2023/01/20 12:53:37;;;;;;;0.10;0.10;;;;;;;;;;5085611;28;20275;-68
2023/01/20 12:56:08;;;;;;;0.10;0.10;;;;;;;;;;5071650;28;20246;-67
2023/01/20 12:58:42;;;;;;;0.27;0.27;;;;;;;;;;5082366;28;20295;-67
2023/01/20 13:01:26;;;;;;;0.10;0.10;;;;;;;;;;5073024;28;20238;-69
2023/01/20 13:04:11;;;;;;;0.10;0.10;;;;;;;;;;5077725;28;20243;-67
2023/01/20 13:06:42;;;;;;;0.10;0.10;;;;;;;;;;5080244;28;20298;-66
2023/01/20 13:09:20;;;;;;;0.10;0.10;;;;;;;;;;5073327;28;20207;-67
2023/01/20 13:11:50;;;;;;;0.30;0.30;;;;;;;;;;5082557;28;20246;-66
2023/01/20 13:14:19;;;;;;;0.10;0.10;;;;;;;;;;5071017;28;20240;-66
2023/01/20 13:16:48;;;;;;;0.10;0.10;;;;;;;;;;5082401;28;20557;-67
2023/01/20 13:19:16;;;;;;;0.10;0.10;;;;;;;;;;5071244;28;20302;-66
2023/01/20 13:21:42;;;;;;;0.10;0.10;;;;;;;;;;5081333;28;20580;-67
2023/01/20 13:24:17;;;;;;;0.10;0.10;;;;;;;;;;5072766;28;20234;-68
2023/01/20 13:26:45;;;;;;;0.10;0.10;;;;;;;;;;5081545;28;20299;-67
2023/01/20 13:29:20;;;;;;;0.10;0.10;;;;;;;;;;5072224;28;20271;-67
2023/01/20 13:31:46;;;;;;;0.10;0.10;;;;;;;;;;5082300;28;20244;-67
2023/01/20 13:34:35;;;;;;;0.10;0.10;;;;;;;;;;5071170;28;20210;-67
2023/01/20 13:37:21;;;;;;;0.10;0.10;;;;;;;;;;5085240;28;20314;-67
2023/01/20 13:39:48;;;;;;;0.10;0.10;;;;;;;;;;5066098;28;20227;-67
2023/01/20 13:42:30;;;;;;;0.10;0.10;;;;;;;;;;5087635;28;20562;-67
2023/01/20 13:45:14;;;;;;;0.10;0.10;;;;;;;;;;5064348;28;20242;-68
2023/01/20 13:47:50;;;;;;;0.10;0.10;;;;;;;;;;5083921;28;20224;-67
2023/01/20 13:50:23;;;;;;;0.10;0.10;;;;;;;;;;5075275;28;20199;-67
2023/01/20 13:53:04;;;;;;;0.20;0.20;;;;;;;;;;5084549;28;20205;-68
2023/01/20 13:55:48;;;;;;;0.20;0.20;;;;;;;;;;5075172;28;20250;-67
2023/01/20 13:58:15;;;;;;;1.17;1.17;;;;;;;;;;5084793;28;20206;-68
2023/01/20 14:00:43;;;;;;;0.13;0.13;;;;;;;;;;5074559;28;20243;-66
2023/01/20 14:03:14;;;;;;;0.10;0.10;;;;;;;;;;5084617;28;20207;-66
2023/01/20 14:05:40;;;;;;;0.10;0.10;;;;;;;;;;5072837;28;20256;-67
2023/01/20 14:08:13;;;;;;;0.10;0.10;;;;;;;;;;5084761;28;20365;-67
2023/01/20 14:10:39;;;;;;;0.10;0.10;;;;;;;;;;5074919;28;20300;-68
2023/01/20 14:13:08;;;;;;;0.10;0.10;;;;;;;;;;5084482;28;20220;-67
2023/01/20 14:15:36;;;;;;;0.10;0.10;;;;;;;;;;5074535;28;20260;-68
2023/01/20 14:18:04;;;;;;;3.70;1.97;;;;;;;;;;5084366;28;20255;-68
2023/01/20 14:20:31;;;;;;;0.10;0.10;;;;;;;;;;5074376;28;20302;-67
2023/01/20 14:23:12;;;;;;;0.10;0.10;;;;;;;;;;5084114;28;20246;-67
2023/01/20 14:25:38;;;;;;;0.10;0.10;;;;;;;;;;5057471;28;20482;-67
2023/01/20 14:28:17;;;;;;;0.20;0.20;;;;;;;;;;5084040;28;20245;-67
2023/01/20 14:30:43;;;;;;;0.10;0.10;;;;;;;;;;5074327;28;20313;-67
2023/01/20 14:33:15;;;;;;;0.10;0.10;;;;;;;;;;5084155;28;20221;-68
2023/01/20 14:35:43;;;;;;;0.10;0.10;;;;;;;;;;5074259;28;20597;-68
2023/01/20 14:38:16;;;;;;;0.47;0.47;;;;;;;;;;5084002;28;20203;-68
2023/01/20 14:40:42;;;;;;;0.10;0.10;;;;;;;;;;5073960;28;20299;-68
2023/01/20 14:43:15;;;;;;;0.37;0.37;;;;;;;;;;5084225;28;20208;-67
2023/01/20 14:45:42;;;;;;;0.10;0.10;;;;;;;;;;5074138;28;20245;-68
2023/01/20 14:48:09;;;;;;;0.50;0.50;;;;;;;;;;5083589;28;20205;-68
2023/01/20 14:50:37;;;;;;;0.10;0.10;;;;;;;;;;5073868;28;20310;-67
2023/01/20 14:53:04;;;;;;;0.10;0.10;;;;;;;;;;5083638;28;20261;-66
2023/01/20 14:55:31;;;;;;;0.10;0.10;;;;;;;;;;5074037;28;20489;-66
2023/01/20 14:57:58;;;;;;;0.20;0.20;;;;;;;;;;5083763;28;20225;-67
2023/01/20 15:00:26;;;;;;;0.10;0.10;;;;;;;;;;5073914;28;20420;-67
2023/01/20 15:02:54;;;;;;;0.10;0.10;;;;;;;;;;5083688;28;20216;-66
2023/01/20 15:05:21;;;;;;;0.40;0.40;;;;;;;;;;5073812;28;20276;-66
2023/01/20 15:07:49;;;;;;;0.10;0.10;;;;;;;;;;5083428;28;20276;-66